createdAt,value
2019-04-23T00:03:45.859Z,13.33
2019-04-23T00:06:24.854Z,16.53
2019-04-23T00:11:30.156Z,13.20
2019-04-23T00:13:57.781Z,13.90
2019-04-23T00:16:36.381Z,16.73
2019-04-23T00:18:49.507Z,15.70
2019-04-23T00:22:09.134Z,17.20
2019-04-23T00:35:02.717Z,16.00
2019-04-23T00:42:34.343Z,18.37
2019-04-23T00:45:00.304Z,16.00
2019-04-23T00:47:34.747Z,15.17
2019-04-23T00:50:06.355Z,15.87
2019-04-23T00:52:35.266Z,16.90
2019-04-23T00:55:10.970Z,18.03
2019-04-23T00:57:35.878Z,18.43
2019-04-23T01:00:10.733Z,18.77
2019-04-23T01:02:37.551Z,17.43
2019-04-23T01:05:11.376Z,18.97
2019-04-23T01:07:38.601Z,17.40
2019-04-23T01:10:15.137Z,19.47
2019-04-23T01:12:46.660Z,24.07
2019-04-23T01:15:24.258Z,19.00
2019-04-23T01:20:28.433Z,17.30
2019-04-23T01:22:38.054Z,19.53
2019-04-23T01:25:39.594Z,19.07
2019-04-23T01:28:28.249Z,23.10
2019-04-23T01:31:03.774Z,21.70
2019-04-23T01:33:35.544Z,20.83
2019-04-23T01:36:10.751Z,22.87
2019-04-23T01:38:35.562Z,27.47
2019-04-23T01:41:00.373Z,22.23
2019-04-23T01:43:36.775Z,21.97
2019-04-23T01:46:09.750Z,20.73
2019-04-23T01:48:42.414Z,19.33
2019-04-23T01:51:02.320Z,21.47
2019-04-23T01:53:43.883Z,19.67
2019-04-23T01:56:06.100Z,21.40
2019-04-23T02:01:12.876Z,22.07
2019-04-23T02:03:46.654Z,21.90
2019-04-23T02:06:13.614Z,22.47
2019-04-23T02:08:47.312Z,21.47
2019-04-23T02:11:11.460Z,21.73
2019-04-23T02:13:51.498Z,23.80
2019-04-23T02:16:21.453Z,24.50
2019-04-23T02:18:52.785Z,23.53
2019-04-23T02:21:23.939Z,23.60
2019-04-23T02:23:57.222Z,24.53
2019-04-23T02:26:34.424Z,23.40
2019-04-23T02:29:14.926Z,24.70
2019-04-23T02:31:52.793Z,24.90
2019-04-23T02:34:28.957Z,22.80
2019-04-23T02:39:12.573Z,26.60
2019-04-23T02:41:47.126Z,24.53
2019-04-23T02:51:59.431Z,25.90
2019-04-23T02:54:36.770Z,25.83
2019-04-23T02:56:51.083Z,23.80
2019-04-23T03:02:07.681Z,26.17
2019-04-23T03:04:33.811Z,25.43
2019-04-23T03:09:40.532Z,29.00
2019-04-23T03:12:08.242Z,26.23
2019-04-23T03:14:33.409Z,27.50
2019-04-23T03:17:27.286Z,28.70
2019-04-23T03:19:58.878Z,31.93
2019-04-23T03:22:44.487Z,28.30
2019-04-23T03:25:23.269Z,26.97
2019-04-23T03:27:44.052Z,29.47
2019-04-23T03:36:10.608Z,27.30
2019-04-23T03:37:55.844Z,29.23
2019-04-23T03:42:57.761Z,26.37
2019-04-23T03:48:00.797Z,29.67
2019-04-23T03:50:35.390Z,28.40
2019-04-23T03:52:57.254Z,26.53
2019-04-23T03:58:05.047Z,31.43
2019-04-23T04:00:37.091Z,28.10
2019-04-23T04:13:15.867Z,30.47
2019-04-23T04:15:55.512Z,27.50
2019-04-23T04:20:53.750Z,28.50
2019-04-23T04:23:22.776Z,29.33
2019-04-23T04:28:28.957Z,24.40
2019-04-23T04:30:48.059Z,24.97
2019-04-23T04:33:50.881Z,27.67
2019-04-23T04:35:58.998Z,24.73
2019-04-23T04:46:12.349Z,22.83
2019-04-23T04:48:35.107Z,18.73
2019-04-23T04:51:15.769Z,19.77
2019-04-23T04:58:43.154Z,20.13
2019-04-23T05:06:12.723Z,24.50
2019-04-23T05:11:17.383Z,22.83
2019-04-23T05:13:46.886Z,19.33
2019-04-23T05:16:17.386Z,19.07
2019-04-23T05:21:46.785Z,19.63
2019-04-23T05:24:16.651Z,21.50
2019-04-23T05:26:29.325Z,18.13
2019-04-23T05:31:32.574Z,18.60
2019-04-23T05:34:08.112Z,18.40
2019-04-23T05:36:52.139Z,18.97
2019-04-23T05:39:20.841Z,16.40
2019-04-23T05:41:46.965Z,19.00
2019-04-23T05:44:21.327Z,15.73
2019-04-23T05:46:44.966Z,17.53
2019-04-23T05:49:22.495Z,16.53
2019-04-23T05:54:29.979Z,15.63
2019-04-23T05:56:51.969Z,17.97
2019-04-23T05:59:23.114Z,16.00
2019-04-23T06:07:16.725Z,16.03
2019-04-23T06:14:35.682Z,19.40
2019-04-23T06:19:30.405Z,17.37
2019-04-23T06:24:53.517Z,16.43
2019-04-23T06:27:13.311Z,20.50
2019-04-23T06:29:43.305Z,18.77
2019-04-23T06:32:07.939Z,18.13
2019-04-23T06:34:41.619Z,16.80
2019-04-23T06:37:09.317Z,17.87
2019-04-23T06:39:48.046Z,19.90
2019-04-23T06:42:14.432Z,15.47
2019-04-23T06:47:21.551Z,20.07
2019-04-23T06:49:55.593Z,18.80
2019-04-23T06:52:21.299Z,18.67
2019-04-23T06:57:39.701Z,17.83
2019-04-23T07:00:02.434Z,16.70
2019-04-23T07:02:34.280Z,19.50
2019-04-23T07:10:07.497Z,18.47
2019-04-23T07:12:38.805Z,18.13
2019-04-23T07:15:29.074Z,16.23
2019-04-23T07:17:34.326Z,17.70
2019-04-23T07:20:15.169Z,16.77
2019-04-23T07:22:46.784Z,20.77
2019-04-23T07:25:14.220Z,21.87
2019-04-23T07:27:42.769Z,18.40
2019-04-23T07:32:49.801Z,22.17
2019-04-23T07:35:30.509Z,17.73
2019-04-23T07:37:57.209Z,19.93
2019-04-23T07:43:08.731Z,15.33
2019-04-23T07:46:01.683Z,19.97
2019-04-23T07:48:16.549Z,17.73
2019-04-23T07:51:16.252Z,19.93
2019-04-23T07:53:31.406Z,18.53
2019-04-23T07:58:33.213Z,19.10
2019-04-23T08:01:03.692Z,16.33
2019-04-23T08:03:39.839Z,18.60
2019-04-23T08:06:10.673Z,20.67
2019-04-23T08:08:37.783Z,19.37
2019-04-23T08:13:48.490Z,20.40
2019-04-23T08:16:26.073Z,16.10
2019-04-23T08:18:49.521Z,21.63
2019-04-23T08:21:16.300Z,20.67
2019-04-23T08:26:50.823Z,19.10
2019-04-23T08:32:02.224Z,20.00
2019-04-23T08:34:34.177Z,18.90
2019-04-23T08:37:03.191Z,20.23
2019-04-23T08:39:26.507Z,18.50
2019-04-23T08:42:21.633Z,22.30
2019-04-23T08:47:44.748Z,16.17
2019-04-23T08:50:18.855Z,12.47
2019-04-23T08:52:45.938Z,20.07
2019-04-23T08:55:16.906Z,17.43
2019-04-23T08:57:43.171Z,14.57
2019-04-23T09:00:17.790Z,15.67
2019-04-23T09:02:55.133Z,12.63
2019-04-23T09:05:28.663Z,12.37
2019-04-23T09:08:05.249Z,17.37
2019-04-23T09:10:26.473Z,16.87
2019-04-23T09:13:11.254Z,20.47
2019-04-23T09:15:33.312Z,17.40
2019-04-23T09:22:55.208Z,16.37
2019-04-23T09:25:36.694Z,13.67
2019-04-23T09:28:03.399Z,15.43
2019-04-23T09:30:35.128Z,16.27
2019-04-23T09:33:34.277Z,21.33
2019-04-23T09:36:25.664Z,19.77
2019-04-23T09:39:00.491Z,17.17
2019-04-23T09:41:31.397Z,17.60
2019-04-23T09:44:47.206Z,14.67
2019-04-23T09:47:13.991Z,13.20
2019-04-23T09:49:58.951Z,13.30
2019-04-23T09:52:13.384Z,18.40
2019-04-23T09:54:49.587Z,14.73
2019-04-23T09:57:12.478Z,10.20
2019-04-23T09:59:43.160Z,14.50
2019-04-23T10:02:08.712Z,15.83
2019-04-23T10:04:31.970Z,9.77
2019-04-23T10:07:02.840Z,36.77
2019-04-23T10:09:20.801Z,14.20
2019-04-23T10:11:51.220Z,11.40
2019-04-23T10:14:20.756Z,12.43
2019-04-23T10:16:52.998Z,13.70
2019-04-23T10:19:22.568Z,14.07
2019-04-23T10:21:53.349Z,15.23
2019-04-23T10:24:23.409Z,15.60
2019-04-23T10:26:52.694Z,12.57
2019-04-23T10:29:25.834Z,13.17
2019-04-23T10:31:55.618Z,14.73
2019-04-23T10:34:27.397Z,13.73
2019-04-23T10:36:57.593Z,19.47
2019-04-23T10:39:32.399Z,17.30
2019-04-23T10:42:01.200Z,19.93
2019-04-23T10:44:43.870Z,17.93
2019-04-23T10:51:01.786Z,16.57
2019-04-23T10:53:37.974Z,14.10
2019-04-23T10:58:35.403Z,14.50
2019-04-23T11:01:16.368Z,10.70
2019-04-23T11:03:49.200Z,21.47
2019-04-23T11:06:16.867Z,17.50
2019-04-23T11:08:50.442Z,15.83
2019-04-23T11:11:14.743Z,16.27
2019-04-23T11:13:44.935Z,18.10
2019-04-23T11:16:45.170Z,13.27
2019-04-23T11:23:51.992Z,14.03
2019-04-23T11:26:28.610Z,10.23
2019-04-23T11:28:55.442Z,16.70
2019-04-23T11:31:43.428Z,23.23
2019-04-23T11:34:00.410Z,22.50
2019-04-23T11:36:49.965Z,22.47
2019-04-23T11:39:00.696Z,16.03
2019-04-23T11:41:47.091Z,27.03
2019-04-23T11:44:04.027Z,16.33
2019-04-23T11:46:48.482Z,17.83
2019-04-23T11:50:25.894Z,20.77
2019-04-23T11:54:12.364Z,24.90
2019-04-23T11:59:17.505Z,21.83
2019-04-23T12:04:38.335Z,31.10
2019-04-23T12:07:21.401Z,24.77
2019-04-23T12:09:53.632Z,31.03
2019-04-23T12:22:33.210Z,30.67
2019-04-23T12:30:00.865Z,35.97
2019-04-23T12:35:19.456Z,31.90
2019-04-23T12:43:07.701Z,40.43
2019-04-23T12:48:16.202Z,36.33
2019-04-23T12:53:10.219Z,32.17
2019-04-23T12:55:42.214Z,40.07
2019-04-23T13:00:36.936Z,40.17
2019-04-23T13:03:16.534Z,34.70
2019-04-23T13:05:35.873Z,48.33
2019-04-23T13:08:31.976Z,34.93
2019-04-23T13:10:48.152Z,42.07
2019-04-23T13:15:47.966Z,55.07
2019-04-23T13:18:23.612Z,55.00
2019-04-23T13:20:42.209Z,46.27
2019-04-23T13:23:25.571Z,42.20
2019-04-23T13:28:35.485Z,37.43
2019-04-23T13:31:12.180Z,73.47
2019-04-23T13:43:47.823Z,59.27
2019-04-23T13:46:14.124Z,44.33
2019-04-23T13:48:41.918Z,61.20
2019-04-23T13:51:22.467Z,71.00
2019-04-23T13:58:54.908Z,73.03
2019-04-23T14:03:54.076Z,68.40
2019-04-23T14:08:59.578Z,63.37
2019-04-23T14:11:26.387Z,84.57
2019-04-23T14:14:29.450Z,96.03
2019-04-23T14:16:39.786Z,97.20
2019-04-23T14:21:51.687Z,91.90
2019-04-23T14:24:17.942Z,81.57
2019-04-23T14:26:38.421Z,73.40
2019-04-23T14:29:04.499Z,80.93
2019-04-23T14:31:44.873Z,80.30
2019-04-23T14:34:11.518Z,73.47
2019-04-23T14:36:55.634Z,85.20
2019-04-23T14:39:18.734Z,85.00
2019-04-23T14:41:54.228Z,79.40
2019-04-23T14:44:19.655Z,73.70
2019-04-23T14:47:00.629Z,74.70
2019-04-23T14:49:45.469Z,76.63
2019-04-23T14:52:09.092Z,62.13
2019-04-23T14:59:37.637Z,65.17
2019-04-23T15:02:13.893Z,75.97
2019-04-23T15:07:28.299Z,68.43
2019-04-23T15:09:57.527Z,65.20
2019-04-23T15:15:02.571Z,60.13
2019-04-23T15:17:20.596Z,53.23
2019-04-23T15:20:00.209Z,72.00
2019-04-23T15:22:57.335Z,62.93
2019-04-23T15:25:15.340Z,57.43
2019-04-23T15:28:03.684Z,59.47
2019-04-23T15:29:56.464Z,48.80
2019-04-23T15:32:53.567Z,61.23
2019-04-23T15:35:19.530Z,57.10
2019-04-23T15:37:58.460Z,54.87
2019-04-23T15:40:11.073Z,55.23
2019-04-23T15:42:40.352Z,57.53
2019-04-23T15:45:08.006Z,58.07
2019-04-23T15:47:48.111Z,53.53
2019-04-23T15:50:10.774Z,55.97
2019-04-23T15:52:56.609Z,61.70
2019-04-23T15:55:14.711Z,39.70
2019-04-23T15:58:03.223Z,40.50
2019-04-23T16:00:15.977Z,40.73
2019-04-23T16:02:21.656Z,35.83
2019-04-23T16:04:51.278Z,43.97
2019-04-23T16:07:39.363Z,47.73
2019-04-23T16:10:26.028Z,39.13
2019-04-23T16:12:59.799Z,36.80
2019-04-23T16:15:19.314Z,34.77
2019-04-23T16:18:04.215Z,25.43
2019-04-23T16:20:46.666Z,27.10
2019-04-23T16:23:03.999Z,23.77
2019-04-23T16:25:39.694Z,28.43
2019-04-23T16:28:28.957Z,22.87
2019-04-23T16:31:12.988Z,22.13
2019-04-23T16:34:04.736Z,24.17
2019-04-23T16:36:24.928Z,25.87
2019-04-23T16:39:04.244Z,26.33
2019-04-23T16:41:34.508Z,24.70
2019-04-23T16:44:06.811Z,28.27
2019-04-23T16:46:33.800Z,29.90
2019-04-23T16:49:15.379Z,31.37
2019-04-23T16:51:32.468Z,20.97
2019-04-23T16:54:10.317Z,26.17
2019-04-23T16:56:55.694Z,30.20
2019-04-23T16:59:15.357Z,37.13
2019-04-23T17:01:44.360Z,33.77
2019-04-23T17:06:53.499Z,25.17
2019-04-23T17:09:21.860Z,26.27
2019-04-23T17:11:55.631Z,29.47
2019-04-23T17:16:44.431Z,18.53
2019-04-23T17:19:29.408Z,29.10
2019-04-23T17:24:33.453Z,31.50
2019-04-23T17:27:16.528Z,19.27
2019-04-23T17:32:46.857Z,23.83
2019-04-23T17:35:24.686Z,22.10
2019-04-23T17:38:00.477Z,24.77
2019-04-23T17:43:01.609Z,27.03
2019-04-23T17:45:33.831Z,23.00
2019-04-23T17:53:25.387Z,25.63
2019-04-23T17:58:28.598Z,25.33
2019-04-23T18:01:10.990Z,32.43
2019-04-23T18:03:41.561Z,31.77
2019-04-23T18:06:30.075Z,34.83
2019-04-23T18:08:37.718Z,36.97
2019-04-23T18:13:43.817Z,32.93
2019-04-23T18:16:25.924Z,25.20
2019-04-23T18:18:52.496Z,37.37
2019-04-23T18:21:44.589Z,35.07
2019-04-23T18:29:59.620Z,37.93
2019-04-23T18:32:44.653Z,32.80
2019-04-23T18:35:20.261Z,46.30
2019-04-23T18:40:06.813Z,37.63
2019-04-23T18:42:43.683Z,40.37
2019-04-23T18:45:24.454Z,25.67
2019-04-23T18:50:32.724Z,40.13
2019-04-23T18:52:55.675Z,36.17
2019-04-23T18:55:37.130Z,39.03
2019-04-23T18:57:57.257Z,38.20
2019-04-23T19:00:40.683Z,44.83
2019-04-23T19:03:19.794Z,45.53
2019-04-23T19:05:58.557Z,33.03
2019-04-23T19:08:51.508Z,39.00
2019-04-23T19:11:49.165Z,37.80
2019-04-23T19:13:57.657Z,37.47
2019-04-23T19:16:50.813Z,38.50
2019-04-23T19:19:09.596Z,43.97
2019-04-23T19:21:59.401Z,30.77
2019-04-23T19:24:03.570Z,30.30
2019-04-23T19:29:13.078Z,39.27
2019-04-23T19:31:55.681Z,35.07
2019-04-23T19:49:38.549Z,33.27
2019-04-23T19:52:20.354Z,37.77
2019-04-23T19:54:42.684Z,30.07
2019-04-23T19:57:22.280Z,42.37
2019-04-23T20:02:21.861Z,39.07
2019-04-23T20:12:13.363Z,33.90
2019-04-23T20:19:48.197Z,29.47
2019-04-23T20:22:25.468Z,31.80
2019-04-23T20:30:23.050Z,28.30
2019-04-23T20:33:48.552Z,28.77
2019-04-23T20:35:24.180Z,29.10
2019-04-23T20:40:59.235Z,30.27
2019-04-23T20:43:14.989Z,33.77
2019-04-23T20:45:56.965Z,33.80
2019-04-23T20:48:25.905Z,29.70
2019-04-23T20:53:22.795Z,28.47
2019-04-23T20:58:39.470Z,29.47
2019-04-23T21:01:34.650Z,36.93
2019-04-23T21:03:50.164Z,29.83
2019-04-23T21:06:18.557Z,29.67
2019-04-23T21:09:14.904Z,29.20
2019-04-23T21:11:18.797Z,27.73
2019-04-23T21:16:26.103Z,32.67
2019-04-23T21:18:47.992Z,29.13
2019-04-23T21:21:25.231Z,36.40
2019-04-23T21:23:52.552Z,31.23
2019-04-23T21:26:25.118Z,31.30
2019-04-23T21:28:54.023Z,30.70
2019-04-23T21:31:45.521Z,35.07
2019-04-23T21:34:13.960Z,39.63
2019-04-23T21:36:46.349Z,31.30
2019-04-23T21:39:47.979Z,32.77
2019-04-23T21:44:18.132Z,31.47
2019-04-23T21:46:55.343Z,37.33
2019-04-23T21:49:41.260Z,30.97
2019-04-23T21:51:57.379Z,27.63
2019-04-23T21:54:30.718Z,32.20
2019-04-23T21:57:14.725Z,26.70
2019-04-23T21:59:34.532Z,24.13
2019-04-23T22:02:03.975Z,29.87
2019-04-23T22:07:07.117Z,27.37
2019-04-23T22:09:50.419Z,25.43
2019-04-23T22:12:14.895Z,28.53
2019-04-23T22:14:45.383Z,20.57
2019-04-23T22:17:16.850Z,27.03
2019-04-23T22:19:58.555Z,26.17
2019-04-23T22:22:20.414Z,23.23
2019-04-23T22:24:54.607Z,22.63
2019-04-23T22:27:19.648Z,28.07
2019-04-23T22:29:49.215Z,30.13
2019-04-23T22:32:30.490Z,24.37
2019-04-23T22:40:02.560Z,18.97
2019-04-23T22:42:56.879Z,23.40
2019-04-23T22:45:09.044Z,23.93
2019-04-23T22:47:34.573Z,28.23
2019-04-23T22:50:20.617Z,25.40
2019-04-23T22:52:41.249Z,24.27
2019-04-23T22:55:08.639Z,31.43
2019-04-23T22:57:56.623Z,25.40
2019-04-23T23:05:59.059Z,23.73
2019-04-23T23:08:13.157Z,26.97
2019-04-23T23:20:57.455Z,23.30
2019-04-23T23:25:55.422Z,20.63
2019-04-23T23:28:26.916Z,26.93
2019-04-23T23:31:05.283Z,27.87
2019-04-23T23:38:42.599Z,21.03
2019-04-23T23:41:12.349Z,29.80
2019-04-23T23:43:29.748Z,27.60
2019-04-23T23:46:18.061Z,27.53
2019-04-23T23:48:35.005Z,22.73
2019-04-23T23:53:53.312Z,25.50
2019-04-23T23:56:14.094Z,30.27
2019-04-23T23:58:52.627Z,22.67
